createdAt,value
2019-01-02T00:00:34.635Z,44.77
2019-01-02T00:05:38.104Z,44.78
2019-01-02T00:10:41.562Z,44.84
2019-01-02T00:15:45.031Z,44.86
2019-01-02T00:20:48.491Z,44.83
2019-01-02T00:25:52.252Z,44.84
2019-01-02T00:30:55.720Z,44.65
2019-01-02T00:35:59.183Z,44.65
2019-01-02T00:41:02.648Z,44.71
2019-01-02T00:46:06.110Z,44.76
2019-01-02T00:51:09.576Z,44.82
2019-01-02T00:56:13.045Z,44.84
2019-01-02T01:01:16.579Z,44.91
2019-01-02T01:06:20.087Z,44.95
2019-01-02T01:11:23.572Z,44.96
2019-01-02T01:16:27.400Z,45.01
2019-01-02T01:21:31.062Z,45.03
2019-01-02T01:26:34.910Z,45.08
2019-01-02T01:31:38.394Z,45.09
2019-01-02T01:36:41.874Z,45.10
2019-01-02T01:41:45.630Z,45.13
2019-01-02T01:46:49.114Z,45.17
2019-01-02T01:51:52.591Z,45.17
2019-01-02T01:56:56.070Z,45.20
2019-01-02T02:01:59.931Z,45.19
2019-01-02T02:07:03.443Z,45.24
2019-01-02T02:12:06.918Z,45.25
2019-01-02T02:17:10.876Z,45.27
2019-01-02T02:22:14.354Z,45.29
2019-01-02T02:27:17.858Z,45.34
2019-01-02T02:32:21.343Z,45.35
2019-01-02T02:37:24.820Z,45.36
2019-01-02T02:42:28.299Z,45.37
2019-01-02T02:47:32.062Z,45.38
2019-01-02T02:52:35.822Z,45.40
2019-01-02T02:57:39.299Z,45.39
2019-01-02T03:02:42.779Z,45.41
2019-01-02T03:07:46.254Z,45.44
2019-01-02T03:12:50.210Z,45.43
2019-01-02T03:17:54.039Z,45.47
2019-01-02T03:22:57.519Z,45.47
2019-01-02T03:28:01.358Z,45.47
2019-01-02T03:33:05.099Z,45.48
2019-01-02T03:38:08.607Z,45.49
2019-01-02T03:43:12.072Z,45.50
2019-01-02T03:48:15.537Z,45.48
2019-01-02T03:53:18.999Z,45.51
2019-01-02T03:58:22.468Z,45.50
2019-01-02T04:03:25.936Z,45.52
2019-01-02T04:08:29.400Z,45.53
2019-01-02T04:13:32.871Z,45.54
2019-01-02T04:18:36.330Z,45.56
2019-01-02T04:23:39.793Z,45.56
2019-01-02T04:28:43.258Z,45.56
2019-01-02T04:33:46.721Z,45.56
2019-01-02T04:38:50.183Z,45.57
2019-01-02T04:43:53.646Z,45.58
2019-01-02T04:48:57.111Z,45.55
2019-01-02T04:54:00.573Z,45.65
2019-01-02T04:59:04.040Z,45.69
2019-01-02T05:04:07.503Z,45.64
2019-01-02T05:09:10.966Z,45.66
2019-01-02T05:14:14.427Z,45.65
2019-01-02T05:19:17.890Z,45.66
2019-01-02T05:24:21.357Z,45.64
2019-01-02T05:29:24.823Z,45.63
2019-01-02T05:34:28.287Z,45.63
2019-01-02T05:39:31.782Z,45.51
2019-01-02T05:44:35.243Z,45.51
2019-01-02T05:49:38.715Z,45.64
2019-01-02T05:54:42.186Z,45.63
2019-01-02T05:59:45.653Z,45.63
2019-01-02T06:04:49.125Z,45.58
2019-01-02T06:09:52.589Z,45.52
2019-01-02T06:14:56.054Z,45.50
2019-01-02T06:19:59.520Z,45.46
2019-01-02T06:25:03.071Z,45.43
2019-01-02T06:30:11.181Z,45.39
2019-01-02T06:35:14.818Z,45.40
2019-01-02T06:40:18.283Z,45.37
2019-01-02T06:45:21.747Z,45.37
2019-01-02T06:50:25.254Z,45.38
2019-01-02T06:55:28.718Z,45.40
2019-01-02T07:00:32.202Z,45.41
2019-01-02T07:05:35.682Z,45.38
2019-01-02T07:10:39.164Z,45.30
2019-01-02T07:15:42.638Z,45.26
2019-01-02T07:20:46.104Z,45.22
2019-01-02T07:25:49.604Z,45.17
2019-01-02T07:30:53.042Z,45.14
2019-01-02T07:36:11.471Z,45.12
2019-01-02T07:41:43.675Z,45.12
2019-01-02T07:46:59.059Z,43.91
2019-01-02T07:52:16.971Z,37.10
2019-01-02T07:57:41.492Z,35.76
2019-01-02T08:03:21.012Z,34.55
2019-01-02T08:08:36.464Z,33.35
2019-01-02T08:13:52.266Z,36.42
2019-01-02T08:19:20.095Z,37.72
2019-01-02T08:24:29.643Z,38.59
2019-01-02T08:29:48.235Z,39.21
2019-01-02T08:35:03.406Z,39.56
2019-01-02T08:40:28.107Z,39.95
2019-01-02T08:45:40.515Z,40.19
2019-01-02T08:51:06.487Z,40.50
2019-01-02T08:56:18.740Z,40.72
2019-01-02T09:01:43.660Z,40.95
2019-01-02T09:07:06.603Z,41.12
2019-01-02T09:12:36.551Z,41.26
2019-01-02T09:17:54.939Z,41.42
2019-01-02T09:23:37.584Z,41.56
2019-01-02T09:28:55.819Z,41.68
2019-01-02T09:34:26.360Z,41.82
2019-01-02T09:39:53.965Z,41.93
2019-01-02T09:45:15.426Z,33.58
2019-01-02T09:50:41.589Z,30.49
2019-01-02T09:56:07.155Z,28.82
2019-01-02T10:01:22.208Z,28.01
2019-01-02T10:06:43.957Z,27.84
2019-01-02T10:12:02.074Z,27.41
2019-01-02T10:17:36.173Z,27.20
2019-01-02T10:23:06.639Z,26.88
2019-01-02T10:28:24.906Z,26.16
2019-01-02T10:33:39.680Z,26.10
2019-01-02T10:39:01.222Z,26.06
2019-01-02T10:44:13.755Z,26.99
2019-01-02T10:49:20.271Z,28.49
2019-01-02T10:54:45.083Z,29.25
2019-01-02T10:59:54.255Z,30.76
2019-01-02T11:05:12.734Z,31.67
2019-01-02T11:10:31.151Z,32.91
2019-01-02T11:16:03.574Z,33.39
2019-01-02T11:21:16.039Z,33.96
2019-01-02T11:26:38.754Z,34.21
2019-01-02T11:32:04.867Z,34.55
2019-01-02T11:37:17.446Z,34.89
2019-01-02T11:42:33.033Z,35.27
2019-01-02T11:47:36.499Z,35.61
2019-01-02T11:52:39.963Z,36.00
2019-01-02T11:57:43.430Z,36.44
2019-01-02T12:02:46.897Z,36.57
2019-01-02T12:07:50.362Z,36.71
2019-01-02T12:12:53.821Z,36.81
2019-01-02T12:17:57.284Z,36.89
2019-01-02T12:23:00.747Z,37.05
2019-01-02T12:28:04.214Z,37.45
2019-01-02T12:33:07.676Z,37.85
2019-01-02T12:38:11.141Z,38.13
2019-01-02T12:43:14.609Z,38.25
2019-01-02T12:48:18.080Z,38.28
2019-01-02T12:53:21.539Z,38.53
2019-01-02T12:58:25.008Z,39.29
2019-01-02T13:03:43.447Z,40.23
2019-01-02T13:09:06.516Z,40.66
2019-01-02T13:14:30.763Z,41.28
2019-01-02T13:19:43.035Z,41.17
2019-01-02T13:24:55.355Z,41.13
2019-01-02T13:30:10.834Z,41.21
2019-01-02T13:35:35.535Z,41.37
2019-01-02T13:40:56.950Z,41.53
2019-01-02T13:46:03.458Z,41.86
2019-01-02T13:51:09.865Z,41.91
2019-01-02T13:56:13.338Z,42.01
2019-01-02T14:01:16.798Z,42.32
2019-01-02T14:06:20.267Z,42.18
2019-01-02T14:11:23.728Z,42.20
2019-01-02T14:16:27.193Z,42.18
2019-01-02T14:21:30.654Z,42.35
2019-01-02T14:26:34.118Z,42.44
2019-01-02T14:31:38.793Z,42.47
2019-01-02T14:36:42.351Z,42.38
2019-01-02T14:41:45.817Z,42.43
2019-01-02T14:46:50.470Z,42.56
2019-01-02T14:51:54.215Z,42.70
2019-01-02T14:56:57.676Z,42.68
2019-01-02T15:02:01.141Z,42.82
2019-01-02T15:07:04.607Z,43.20
2019-01-02T15:12:08.080Z,43.75
2019-01-02T15:17:11.540Z,43.91
2019-01-02T15:22:15.006Z,44.16
2019-01-02T15:27:18.474Z,44.31
2019-01-02T15:32:21.936Z,44.29
2019-01-02T15:37:25.397Z,44.13
2019-01-02T15:42:28.868Z,43.99
2019-01-02T15:47:32.337Z,43.92
2019-01-02T15:52:35.803Z,43.86
2019-01-02T15:57:39.268Z,43.82
2019-01-02T16:02:42.737Z,43.81
2019-01-02T16:07:46.202Z,43.81
2019-01-02T16:12:49.668Z,43.84
2019-01-02T16:17:53.130Z,43.83
2019-01-02T16:22:56.595Z,43.86
2019-01-02T16:28:00.068Z,43.92
2019-01-02T16:33:03.526Z,43.87
2019-01-02T16:38:06.997Z,43.92
2019-01-02T16:43:10.465Z,43.94
2019-01-02T16:48:13.939Z,43.92
2019-01-02T16:53:17.404Z,43.92
2019-01-02T16:58:20.873Z,43.92
2019-01-02T17:03:24.354Z,43.98
2019-01-02T17:08:27.800Z,43.98
2019-01-02T17:13:31.270Z,44.15
2019-01-02T17:18:34.737Z,44.32
2019-01-02T17:23:38.201Z,44.43
2019-01-02T17:28:41.668Z,45.00
2019-01-02T17:33:45.158Z,45.01
2019-01-02T17:38:48.644Z,44.99
2019-01-02T17:43:54.172Z,44.97
2019-01-02T17:48:57.635Z,44.99
2019-01-02T17:54:01.099Z,45.04
2019-01-02T17:59:04.603Z,44.96
2019-01-02T18:04:08.068Z,45.03
2019-01-02T18:09:11.558Z,45.05
2019-01-02T18:14:15.019Z,45.03
2019-01-02T18:19:18.573Z,45.12
2019-01-02T18:24:22.061Z,45.14
2019-01-02T18:29:25.540Z,45.20
2019-01-02T18:34:29.023Z,45.22
2019-01-02T18:39:32.504Z,45.22
2019-01-02T18:44:35.983Z,45.25
2019-01-02T18:49:39.463Z,45.23
2019-01-02T18:54:42.942Z,45.21
2019-01-02T18:59:46.427Z,45.17
2019-01-02T19:04:49.911Z,45.17
2019-01-02T19:09:53.458Z,45.21
2019-01-02T19:14:56.955Z,45.20
2019-01-02T19:20:00.428Z,45.25
2019-01-02T19:25:04.286Z,45.24
2019-01-02T19:30:09.202Z,45.26
2019-01-02T19:35:12.692Z,45.24
2019-01-02T19:40:16.181Z,45.24
2019-01-02T19:45:19.665Z,45.25
2019-01-02T19:50:23.144Z,45.26
2019-01-02T19:55:26.628Z,45.27
2019-01-02T20:00:30.110Z,45.27
2019-01-02T20:05:33.588Z,45.29
2019-01-02T20:10:37.070Z,45.31
2019-01-02T20:15:40.551Z,45.31
2019-01-02T20:20:44.030Z,45.32
2019-01-02T20:25:47.522Z,45.33
2019-01-02T20:30:51.016Z,45.37
2019-01-02T20:35:54.492Z,45.36
2019-01-02T20:40:58.037Z,45.37
2019-01-02T20:46:01.542Z,45.41
2019-01-02T20:51:06.031Z,45.42
2019-01-02T20:56:09.507Z,45.43
2019-01-02T21:01:12.991Z,45.46
2019-01-02T21:06:16.469Z,45.43
2019-01-02T21:11:19.947Z,45.44
2019-01-02T21:16:23.428Z,45.44
2019-01-02T21:21:27.726Z,45.44
2019-01-02T21:26:31.214Z,45.45
2019-01-02T21:31:34.695Z,45.45
2019-01-02T21:36:38.180Z,45.45
2019-01-02T21:41:41.662Z,45.47
2019-01-02T21:46:45.144Z,45.45
2019-01-02T21:51:48.622Z,45.44
2019-01-02T21:56:52.110Z,45.46
2019-01-02T22:01:55.580Z,45.45
2019-01-02T22:06:59.068Z,45.42
2019-01-02T22:12:02.546Z,45.44
2019-01-02T22:17:06.100Z,45.40
2019-01-02T22:22:09.578Z,45.40
2019-01-02T22:27:13.060Z,45.39
2019-01-02T22:32:16.548Z,45.42
2019-01-02T22:37:20.022Z,45.40
2019-01-02T22:42:23.507Z,45.41
2019-01-02T22:47:27.003Z,45.48
2019-01-02T22:52:30.477Z,45.42
2019-01-02T22:57:33.946Z,45.42
2019-01-02T23:02:39.067Z,45.44
2019-01-02T23:08:00.873Z,45.43
2019-01-02T23:13:05.977Z,45.43
2019-01-02T23:18:26.957Z,45.42
2019-01-02T23:23:44.029Z,45.45
2019-01-02T23:28:51.771Z,45.44
2019-01-02T23:34:15.115Z,45.50
2019-01-02T23:39:28.883Z,45.47
2019-01-02T23:44:50.155Z,45.47
2019-01-02T23:50:07.465Z,45.48
2019-01-02T23:55:24.301Z,45.45
